createdAt,value
2022-10-26T00:01:16.512Z,0
2022-10-26T00:02:56.204Z,0
2022-10-26T00:04:35.988Z,0
2022-10-26T00:06:15.773Z,0
2022-10-26T00:07:55.528Z,0
2022-10-26T00:09:35.287Z,0
2022-10-26T00:11:15.053Z,0
2022-10-26T00:12:54.819Z,0
2022-10-26T00:14:34.588Z,0
2022-10-26T00:16:14.359Z,0
2022-10-26T00:17:54.123Z,0
2022-10-26T00:19:33.885Z,0
2022-10-26T00:21:13.664Z,0
2022-10-26T00:22:53.419Z,0
2022-10-26T00:24:33.194Z,0
2022-10-26T00:26:12.954Z,0
2022-10-26T00:27:52.738Z,0
2022-10-26T00:29:32.496Z,0
2022-10-26T00:31:12.279Z,0
2022-10-26T00:32:52.069Z,0
2022-10-26T00:34:31.843Z,0
2022-10-26T00:36:11.555Z,0
2022-10-26T00:37:51.339Z,0
2022-10-26T00:39:31.092Z,0
2022-10-26T00:41:10.863Z,0
2022-10-26T00:42:50.657Z,0
2022-10-26T00:44:30.401Z,0
2022-10-26T00:46:10.175Z,0
2022-10-26T00:47:49.943Z,0
2022-10-26T00:49:29.716Z,0
2022-10-26T00:51:09.475Z,0
2022-10-26T00:52:49.233Z,0
2022-10-26T00:54:29.002Z,0
2022-10-26T00:56:08.836Z,0
2022-10-26T00:57:48.553Z,0
2022-10-26T00:59:28.309Z,0
2022-10-26T01:01:08.123Z,0
2022-10-26T01:02:47.845Z,0
2022-10-26T01:04:27.615Z,0
2022-10-26T01:06:07.456Z,0
2022-10-26T01:07:47.136Z,0
2022-10-26T01:09:26.911Z,0
2022-10-26T01:11:06.693Z,0
2022-10-26T01:12:46.439Z,0
2022-10-26T01:14:26.210Z,0
2022-10-26T01:16:05.999Z,0
2022-10-26T01:17:45.742Z,0
2022-10-26T01:19:25.524Z,0
2022-10-26T01:21:05.326Z,0
2022-10-26T01:22:45.050Z,0
2022-10-26T01:24:24.826Z,0
2022-10-26T01:26:04.583Z,0
2022-10-26T01:27:44.349Z,0
2022-10-26T01:29:24.132Z,0
2022-10-26T01:31:03.884Z,0
2022-10-26T01:32:43.650Z,0
2022-10-26T01:34:23.419Z,0
2022-10-26T01:36:03.190Z,0
2022-10-26T01:37:42.969Z,0
2022-10-26T01:39:22.742Z,0
2022-10-26T01:41:02.494Z,0
2022-10-26T01:42:42.263Z,0
2022-10-26T01:44:22.025Z,0
2022-10-26T01:46:01.796Z,0
2022-10-26T01:47:41.565Z,0
2022-10-26T01:49:21.354Z,0
2022-10-26T01:51:01.097Z,0
2022-10-26T01:52:40.864Z,0
2022-10-26T01:54:20.642Z,0
2022-10-26T01:56:00.400Z,0
2022-10-26T01:57:40.158Z,0
2022-10-26T01:59:19.947Z,0
2022-10-26T02:00:59.694Z,0
2022-10-26T02:02:39.473Z,0
2022-10-26T02:04:19.256Z,0
2022-10-26T02:05:59.058Z,0
2022-10-26T02:07:38.782Z,0
2022-10-26T02:09:18.535Z,0
2022-10-26T02:10:58.305Z,0
2022-10-26T02:12:38.070Z,0
2022-10-26T02:14:17.838Z,0
2022-10-26T02:15:57.610Z,0
2022-10-26T02:17:37.376Z,0
2022-10-26T02:19:17.141Z,0
2022-10-26T02:20:56.901Z,0
2022-10-26T02:22:36.685Z,0
2022-10-26T02:24:16.442Z,0
2022-10-26T02:25:56.201Z,0
2022-10-26T02:27:35.980Z,0
2022-10-26T02:29:15.749Z,0
2022-10-26T02:30:55.525Z,0
2022-10-26T02:32:35.313Z,0
2022-10-26T02:34:15.080Z,0
2022-10-26T02:35:54.829Z,0
2022-10-26T02:37:34.594Z,0
2022-10-26T02:39:14.347Z,0
2022-10-26T02:40:54.115Z,0
2022-10-26T02:42:33.876Z,0
2022-10-26T02:44:13.651Z,0
2022-10-26T02:45:53.411Z,0
2022-10-26T02:47:33.188Z,0
2022-10-26T02:49:12.953Z,0
2022-10-26T02:50:52.714Z,0
2022-10-26T02:52:32.490Z,0
2022-10-26T02:54:12.266Z,0
2022-10-26T02:55:52.026Z,0
2022-10-26T02:57:31.799Z,0
2022-10-26T02:59:11.560Z,0
2022-10-26T03:00:51.335Z,0
2022-10-26T03:02:31.090Z,0
2022-10-26T03:04:10.855Z,0
2022-10-26T03:05:50.621Z,0
2022-10-26T03:07:30.398Z,0
2022-10-26T03:09:10.162Z,0
2022-10-26T03:10:49.929Z,0
2022-10-26T03:12:29.694Z,0
2022-10-26T03:14:09.467Z,0
2022-10-26T03:15:49.235Z,0
2022-10-26T03:17:29.015Z,0
2022-10-26T03:19:08.782Z,0
2022-10-26T03:20:48.528Z,0
2022-10-26T03:22:28.299Z,0
2022-10-26T03:24:08.064Z,0
2022-10-26T03:25:47.843Z,0
2022-10-26T03:27:27.632Z,0
2022-10-26T03:29:07.359Z,0
2022-10-26T03:30:47.173Z,0
2022-10-26T03:32:26.910Z,0
2022-10-26T03:34:06.716Z,0
2022-10-26T03:35:46.444Z,0
2022-10-26T03:37:26.206Z,0
2022-10-26T03:39:05.983Z,0
2022-10-26T03:40:45.743Z,0
2022-10-26T03:42:25.506Z,0
2022-10-26T03:44:05.270Z,0
2022-10-26T03:45:45.052Z,0
2022-10-26T03:47:24.816Z,0
2022-10-26T03:49:04.586Z,0
2022-10-26T03:50:44.355Z,0
2022-10-26T03:52:24.099Z,0
2022-10-26T03:54:03.877Z,0
2022-10-26T03:55:43.630Z,0
2022-10-26T03:57:23.405Z,0
2022-10-26T03:59:03.168Z,0
2022-10-26T04:00:42.938Z,0
2022-10-26T04:02:22.713Z,0
2022-10-26T04:04:02.623Z,0
2022-10-26T04:05:42.261Z,0
2022-10-26T04:07:22.007Z,0
2022-10-26T04:10:41.517Z,0
2022-10-26T04:12:21.282Z,0
2022-10-26T04:14:01.047Z,0
2022-10-26T04:15:40.799Z,0
2022-10-26T04:17:20.575Z,0
2022-10-26T04:19:00.332Z,0
2022-10-26T04:20:40.093Z,0
2022-10-26T04:22:19.857Z,0
2022-10-26T04:23:59.639Z,0
2022-10-26T04:25:39.392Z,0
2022-10-26T04:27:19.169Z,0
2022-10-26T04:28:58.920Z,0
2022-10-26T04:30:38.705Z,0
2022-10-26T04:32:18.480Z,0
2022-10-26T04:33:58.236Z,0
2022-10-26T04:35:37.983Z,0
2022-10-26T04:37:17.761Z,0
2022-10-26T04:38:57.517Z,0
2022-10-26T04:40:37.299Z,0
2022-10-26T04:42:17.042Z,0
2022-10-26T04:43:56.819Z,0
2022-10-26T04:45:36.587Z,0
2022-10-26T04:47:16.329Z,0
2022-10-26T04:48:56.096Z,0
2022-10-26T04:50:35.940Z,0
2022-10-26T04:52:15.716Z,0
2022-10-26T04:53:55.389Z,0
2022-10-26T04:55:35.182Z,0
2022-10-26T04:57:14.916Z,0
2022-10-26T04:58:54.715Z,0
2022-10-26T05:00:34.455Z,0
2022-10-26T05:02:14.215Z,0
2022-10-26T05:03:53.974Z,0
2022-10-26T05:05:33.751Z,0
2022-10-26T05:07:13.495Z,0
2022-10-26T05:08:53.267Z,0
2022-10-26T05:10:33.067Z,0
2022-10-26T05:12:12.789Z,0
2022-10-26T05:13:52.567Z,0
2022-10-26T05:15:32.335Z,0
2022-10-26T05:17:12.095Z,0
2022-10-26T05:18:51.883Z,0
2022-10-26T05:20:31.624Z,0
2022-10-26T05:22:11.481Z,0
2022-10-26T05:23:51.138Z,0
2022-10-26T05:25:30.898Z,0
2022-10-26T05:27:10.668Z,0
2022-10-26T05:28:50.431Z,0
2022-10-26T05:30:30.204Z,0
2022-10-26T05:32:09.962Z,0
2022-10-26T05:33:49.740Z,0
2022-10-26T05:35:29.502Z,0
2022-10-26T05:37:09.256Z,0
2022-10-26T05:38:49.029Z,0
2022-10-26T05:40:28.824Z,0
2022-10-26T05:42:08.552Z,0
2022-10-26T05:43:48.323Z,0
2022-10-26T05:45:28.149Z,0
2022-10-26T05:47:07.849Z,0
2022-10-26T05:48:47.625Z,0
2022-10-26T05:50:27.384Z,0
2022-10-26T05:52:07.147Z,0
2022-10-26T05:53:46.938Z,0
2022-10-26T05:55:26.702Z,0
2022-10-26T05:57:06.453Z,0
2022-10-26T05:58:46.233Z,0.01
2022-10-26T06:00:25.983Z,0.02
2022-10-26T06:02:05.762Z,0.02
2022-10-26T06:03:45.524Z,0.02
2022-10-26T06:05:25.315Z,0.02
2022-10-26T06:07:05.145Z,0.06
2022-10-26T06:08:44.834Z,0.1
2022-10-26T06:10:24.616Z,0.1
2022-10-26T06:12:04.381Z,0.11
2022-10-26T06:13:44.145Z,0.11
2022-10-26T06:15:23.913Z,0.16
2022-10-26T06:17:03.681Z,0.11
2022-10-26T06:18:43.458Z,0.19
2022-10-26T06:20:23.237Z,0.17
2022-10-26T06:23:42.764Z,0.23
2022-10-26T06:25:22.539Z,0.21
2022-10-26T06:27:02.369Z,0.23
2022-10-26T06:28:42.066Z,0.21
2022-10-26T06:30:21.843Z,0.43
2022-10-26T06:32:01.619Z,0.26
2022-10-26T06:33:41.393Z,0.31
2022-10-26T06:35:21.159Z,0.28
2022-10-26T06:37:00.928Z,0.29
2022-10-26T06:38:40.703Z,0.31
2022-10-26T06:40:20.466Z,0.33
2022-10-26T06:42:00.228Z,0.28
2022-10-26T06:43:40.006Z,0.27
2022-10-26T06:45:19.791Z,0.32
2022-10-26T06:46:59.533Z,0.31
2022-10-26T06:48:39.346Z,0.33
2022-10-26T06:51:58.835Z,0.34
2022-10-26T06:53:38.617Z,0.35
2022-10-26T06:55:18.384Z,0.36
2022-10-26T06:56:58.155Z,0.35
2022-10-26T06:58:37.917Z,0.37
2022-10-26T07:00:17.723Z,0.36
2022-10-26T07:01:57.460Z,0.44
2022-10-26T07:03:37.241Z,0.35
2022-10-26T07:05:17.069Z,0.36
2022-10-26T07:06:56.795Z,0.35
2022-10-26T07:08:36.592Z,0.36
2022-10-26T07:10:16.320Z,0.33
2022-10-26T07:11:56.127Z,0.37
2022-10-26T07:13:35.855Z,0.36
2022-10-26T07:15:15.697Z,0.36
2022-10-26T07:16:55.402Z,0.37
2022-10-26T07:18:35.178Z,0.37
2022-10-26T07:20:14.945Z,0.36
2022-10-26T07:21:54.704Z,0.38
2022-10-26T07:23:34.481Z,0.39
2022-10-26T07:25:14.264Z,0.37
2022-10-26T07:26:54.067Z,0.37
2022-10-26T07:28:33.811Z,0.38
2022-10-26T07:30:13.569Z,0.86
2022-10-26T07:31:53.350Z,0.6
2022-10-26T07:33:33.114Z,0.38
2022-10-26T07:35:12.929Z,0.4
2022-10-26T07:36:52.673Z,0.41
2022-10-26T07:38:32.404Z,0.41
2022-10-26T07:40:12.178Z,0.41
2022-10-26T07:41:51.948Z,0.43
2022-10-26T07:43:31.731Z,0.42
2022-10-26T07:45:11.533Z,0.4
2022-10-26T07:46:51.272Z,0.4
2022-10-26T07:48:31.064Z,0.4
2022-10-26T07:50:10.824Z,0.39
2022-10-26T07:51:50.569Z,0.4
2022-10-26T07:53:30.368Z,0.42
2022-10-26T07:55:10.153Z,0.42
2022-10-26T07:56:49.894Z,0.43
2022-10-26T07:58:29.662Z,0.4
2022-10-26T08:00:09.449Z,0.4
2022-10-26T08:01:49.200Z,0.42
2022-10-26T08:03:28.967Z,0.43
2022-10-26T08:05:08.765Z,0.43
2022-10-26T08:06:48.509Z,0.44
2022-10-26T08:08:28.272Z,0.46
2022-10-26T08:10:08.051Z,0.44
2022-10-26T08:11:47.817Z,0.43
2022-10-26T08:13:27.590Z,0.46
2022-10-26T08:15:07.352Z,0.46
2022-10-26T08:16:47.145Z,0.44
2022-10-26T08:18:26.897Z,0.45
2022-10-26T08:20:06.687Z,0.47
2022-10-26T08:21:46.545Z,0.46
2022-10-26T08:23:26.300Z,0.43
2022-10-26T08:25:06.022Z,0.44
2022-10-26T08:31:45.083Z,1.05
2022-10-26T08:33:24.875Z,0.55
2022-10-26T08:35:04.610Z,1.87
2022-10-26T08:36:44.372Z,3.19
2022-10-26T08:38:24.143Z,2.42
2022-10-26T08:40:03.910Z,2.18
2022-10-26T08:41:43.689Z,2.05
2022-10-26T08:43:23.536Z,1.96
2022-10-26T08:45:03.316Z,1.9
2022-10-26T08:46:43.078Z,1.81
2022-10-26T08:48:22.774Z,1.77
2022-10-26T08:50:02.572Z,1.73
2022-10-26T08:51:42.332Z,1.7
2022-10-26T08:53:22.087Z,1.7
2022-10-26T08:55:01.864Z,1.66
2022-10-26T08:56:41.631Z,1.7
2022-10-26T08:58:21.400Z,1.62
2022-10-26T09:00:01.199Z,1.62
2022-10-26T09:01:40.931Z,1.6
2022-10-26T09:03:20.703Z,1.56
2022-10-26T09:05:00.468Z,1.58
2022-10-26T09:06:40.241Z,1.58
2022-10-26T09:08:20.024Z,1.59
2022-10-26T09:09:59.770Z,1.52
2022-10-26T09:11:39.615Z,1.54
2022-10-26T09:13:19.350Z,1.53
2022-10-26T09:14:59.149Z,1.5
2022-10-26T09:16:38.912Z,1.49
2022-10-26T09:18:18.740Z,1.5
2022-10-26T09:19:58.446Z,1.5
2022-10-26T09:21:38.172Z,1.48
2022-10-26T09:23:17.981Z,1.47
2022-10-26T09:24:57.715Z,1.43
2022-10-26T09:26:37.488Z,1.44
2022-10-26T09:28:17.254Z,1.48
2022-10-26T09:29:57.032Z,1.43
2022-10-26T09:31:36.789Z,1.43
2022-10-26T09:33:16.612Z,1.44
2022-10-26T09:34:56.338Z,1.42
2022-10-26T09:36:36.110Z,1.42
2022-10-26T09:38:15.883Z,1.32
2022-10-26T09:41:35.422Z,1.45
2022-10-26T09:43:15.189Z,1.39
2022-10-26T09:44:54.957Z,1.4
2022-10-26T09:46:34.735Z,1.32
2022-10-26T09:48:14.519Z,1.41
2022-10-26T09:49:54.272Z,1.36
2022-10-26T09:51:34.064Z,1.34
2022-10-26T09:53:13.807Z,1.42
2022-10-26T09:54:53.608Z,1.32
2022-10-26T09:56:33.369Z,1.31
2022-10-26T09:58:13.121Z,1.33
2022-10-26T09:59:52.936Z,1.31
2022-10-26T10:01:32.654Z,1.3
2022-10-26T10:03:12.446Z,1.25
2022-10-26T10:04:52.203Z,1.35
2022-10-26T10:06:31.969Z,1.22
2022-10-26T10:08:11.756Z,1.29
2022-10-26T10:09:51.544Z,1.26
2022-10-26T10:11:31.294Z,1.33
2022-10-26T10:13:11.064Z,1.38
2022-10-26T10:14:50.828Z,1.31
2022-10-26T10:16:30.603Z,1.37
2022-10-26T10:18:10.369Z,1.33
2022-10-26T10:19:50.137Z,1.37
2022-10-26T10:21:29.939Z,1.26
2022-10-26T10:23:09.698Z,1.31
2022-10-26T10:24:49.454Z,1.26
2022-10-26T10:26:29.233Z,1.36
2022-10-26T10:28:09.016Z,1.36
2022-10-26T10:29:48.761Z,1.26
2022-10-26T10:31:28.533Z,1.36
2022-10-26T10:33:08.293Z,1.22
2022-10-26T10:34:48.085Z,1.35
2022-10-26T10:36:27.838Z,1.26
2022-10-26T10:38:07.618Z,1.1
2022-10-26T10:39:47.377Z,1.3
2022-10-26T10:41:27.171Z,1.28
2022-10-26T10:43:06.951Z,1.3
2022-10-26T10:44:46.689Z,1.24
2022-10-26T10:46:26.462Z,1.24
2022-10-26T10:48:06.237Z,1.12
2022-10-26T10:49:46.000Z,1.19
2022-10-26T10:51:25.765Z,1.31
2022-10-26T10:53:05.553Z,1.2
2022-10-26T10:54:45.311Z,1.17
2022-10-26T10:56:25.093Z,1.28
2022-10-26T10:58:04.860Z,1.13
2022-10-26T10:59:44.694Z,1.21
2022-10-26T11:01:24.406Z,1.08
2022-10-26T11:03:04.173Z,1.11
2022-10-26T11:04:43.983Z,1.27
2022-10-26T11:06:23.706Z,1.19
2022-10-26T11:08:03.500Z,1.16
2022-10-26T11:09:43.291Z,1.14
2022-10-26T11:11:23.011Z,1.2
2022-10-26T11:13:02.824Z,1.16
2022-10-26T11:14:42.562Z,1.14
2022-10-26T11:16:22.378Z,1.11
2022-10-26T11:18:02.111Z,1.22
2022-10-26T11:19:41.867Z,1.17
2022-10-26T11:21:21.642Z,1.17
2022-10-26T11:23:01.417Z,1.15
2022-10-26T11:24:41.174Z,1.1
2022-10-26T11:26:20.958Z,1.2
2022-10-26T11:28:00.719Z,1.14
2022-10-26T11:29:40.538Z,1.23
2022-10-26T11:31:20.310Z,1.17
2022-10-26T11:33:00.044Z,1.09
2022-10-26T11:34:39.816Z,1.08
2022-10-26T11:36:19.580Z,1.12
2022-10-26T11:37:59.335Z,0
2022-10-26T11:39:39.099Z,0
2022-10-26T11:41:18.922Z,0
2022-10-26T11:42:58.629Z,0
2022-10-26T11:44:38.398Z,0
2022-10-26T11:46:18.180Z,0
2022-10-26T11:47:57.933Z,0
2022-10-26T11:49:37.694Z,0
2022-10-26T11:51:17.527Z,0.15
2022-10-26T11:52:57.235Z,0.21
2022-10-26T11:54:37.017Z,0.27
2022-10-26T11:56:16.777Z,0.23
2022-10-26T11:57:56.544Z,0.26
2022-10-26T12:01:16.086Z,0.23
2022-10-26T12:02:55.867Z,0.27
2022-10-26T12:04:35.631Z,0.29
2022-10-26T12:06:15.404Z,0.28
2022-10-26T12:07:55.192Z,0.25
2022-10-26T12:09:34.948Z,0.26
2022-10-26T12:11:14.733Z,0.26
2022-10-26T12:12:54.485Z,0.28
2022-10-26T12:14:34.270Z,0.26
2022-10-26T12:16:14.022Z,0.32
2022-10-26T12:17:53.847Z,0.27
2022-10-26T12:19:33.577Z,0.27
2022-10-26T12:21:13.345Z,0.26
2022-10-26T12:22:53.114Z,0.27
2022-10-26T12:24:32.869Z,0.28
2022-10-26T12:26:12.649Z,0.27
2022-10-26T12:27:52.481Z,0.25
2022-10-26T12:29:32.191Z,0.26
2022-10-26T12:31:11.961Z,0.27
2022-10-26T12:32:51.731Z,0.28
2022-10-26T12:34:31.500Z,0.28
2022-10-26T12:36:11.282Z,0.27
2022-10-26T12:37:51.044Z,0.29
2022-10-26T12:39:30.821Z,0.26
2022-10-26T12:41:10.584Z,0.27
2022-10-26T12:42:50.351Z,0.26
2022-10-26T12:44:30.129Z,0.28
2022-10-26T12:46:09.913Z,0.28
2022-10-26T12:47:49.661Z,0.27
2022-10-26T12:49:29.434Z,0.28
2022-10-26T12:51:09.204Z,0.23
2022-10-26T12:52:48.980Z,0.28
2022-10-26T12:54:28.748Z,0.28
2022-10-26T12:57:48.287Z,0.28
2022-10-26T12:59:28.064Z,0.26
2022-10-26T13:01:07.836Z,0.28
2022-10-26T13:02:47.597Z,0.25
2022-10-26T13:04:27.375Z,0.23
2022-10-26T13:06:07.131Z,0.24
2022-10-26T13:07:46.922Z,0.25
2022-10-26T13:09:26.686Z,0.24
2022-10-26T13:11:06.467Z,0.22
2022-10-26T13:12:46.226Z,0.23
2022-10-26T13:14:25.976Z,0.22
2022-10-26T13:16:05.771Z,0.22
2022-10-26T13:17:45.524Z,0.26
2022-10-26T13:19:25.301Z,0.27
2022-10-26T13:21:05.068Z,0.25
2022-10-26T13:22:44.835Z,0.26
2022-10-26T13:24:24.611Z,0.24
2022-10-26T13:26:04.375Z,0.24
2022-10-26T13:27:44.140Z,0.26
2022-10-26T13:29:23.927Z,0.24
2022-10-26T13:31:03.700Z,0.27
2022-10-26T13:32:43.492Z,0.24
2022-10-26T13:34:23.259Z,0.23
2022-10-26T13:37:42.777Z,0.24
2022-10-26T13:39:22.536Z,0.23
2022-10-26T13:41:02.308Z,0.24
2022-10-26T13:42:42.145Z,0.25
2022-10-26T13:44:21.862Z,0.24
2022-10-26T13:46:01.622Z,0.25
2022-10-26T13:47:41.405Z,0.24
2022-10-26T13:49:21.207Z,0.25
2022-10-26T13:51:00.932Z,0.25
2022-10-26T13:52:40.703Z,0.25
2022-10-26T13:54:20.473Z,0.25
2022-10-26T13:56:00.245Z,0.23
2022-10-26T13:57:40.111Z,0.24
2022-10-26T13:59:19.855Z,0.26
2022-10-26T14:00:59.551Z,0.23
2022-10-26T14:02:39.332Z,0.23
2022-10-26T14:04:19.138Z,0.24
2022-10-26T14:05:58.908Z,0.24
2022-10-26T14:07:38.672Z,0.25
2022-10-26T14:09:18.410Z,0.24
2022-10-26T14:10:58.219Z,0.23
2022-10-26T14:12:38.051Z,0.24
2022-10-26T14:14:17.762Z,0.26
2022-10-26T14:17:37.263Z,0.25
2022-10-26T14:19:17.136Z,0.26
2022-10-26T14:20:56.867Z,0.22
2022-10-26T14:22:36.590Z,0.24
2022-10-26T14:24:16.397Z,0.22
2022-10-26T14:25:56.155Z,0.22
2022-10-26T14:27:35.886Z,0.26
2022-10-26T14:29:15.655Z,0.23
2022-10-26T14:30:55.446Z,0.25
2022-10-26T14:32:35.193Z,0.22
2022-10-26T14:34:14.980Z,0.25
2022-10-26T14:35:54.736Z,0.25
2022-10-26T14:37:34.547Z,0.23
2022-10-26T14:39:14.322Z,0.22
2022-10-26T14:40:54.059Z,0.22
2022-10-26T14:42:33.821Z,0.22
2022-10-26T14:44:13.606Z,0.22
2022-10-26T14:45:53.361Z,0.22
2022-10-26T14:47:33.137Z,0.18
2022-10-26T14:49:12.923Z,0.19
2022-10-26T14:50:52.701Z,0.16
2022-10-26T14:52:32.454Z,0.18
2022-10-26T14:54:12.245Z,0.18
2022-10-26T14:55:51.992Z,0.21
2022-10-26T14:57:31.751Z,0.22
2022-10-26T14:59:11.538Z,0.24
2022-10-26T15:00:51.292Z,0.21
2022-10-26T15:02:31.087Z,0.23
2022-10-26T15:04:10.839Z,0.21
2022-10-26T15:05:50.623Z,0.23
2022-10-26T15:07:30.410Z,0.25
2022-10-26T15:09:10.155Z,0.25
2022-10-26T15:10:49.964Z,0.25
2022-10-26T15:12:29.707Z,0.27
2022-10-26T15:14:09.481Z,0.28
2022-10-26T15:15:49.228Z,0.25
2022-10-26T15:17:29.001Z,0.23
2022-10-26T15:19:08.774Z,0.23
2022-10-26T15:20:48.622Z,0.18
2022-10-26T15:22:28.315Z,0.18
2022-10-26T15:24:08.083Z,0.2
2022-10-26T15:25:47.847Z,0.18
2022-10-26T15:27:27.628Z,0.16
2022-10-26T15:29:07.407Z,0.09
2022-10-26T15:30:47.177Z,0.07
2022-10-26T15:32:26.968Z,0.07
2022-10-26T15:34:06.823Z,0.05
2022-10-26T15:35:46.507Z,0.05
2022-10-26T15:37:26.237Z,0.01
2022-10-26T15:39:06.044Z,0
2022-10-26T15:40:45.892Z,0
2022-10-26T15:42:25.593Z,0
2022-10-26T15:44:05.346Z,0
2022-10-26T15:45:45.101Z,0
2022-10-26T15:47:24.859Z,0
2022-10-26T15:49:04.632Z,0
2022-10-26T15:50:44.376Z,0
2022-10-26T15:52:24.164Z,0
2022-10-26T15:54:03.925Z,0
2022-10-26T15:55:43.714Z,0
2022-10-26T15:57:23.459Z,0
2022-10-26T15:59:03.218Z,0
2022-10-26T16:00:42.996Z,0
2022-10-26T16:02:22.756Z,0
2022-10-26T16:04:02.523Z,0
2022-10-26T16:05:42.312Z,0
2022-10-26T16:07:22.106Z,0
2022-10-26T16:09:01.831Z,0
2022-10-26T16:10:41.604Z,0
2022-10-26T16:12:21.368Z,0
2022-10-26T16:14:01.140Z,0
2022-10-26T16:15:40.905Z,0
2022-10-26T16:17:20.711Z,0
2022-10-26T16:19:00.436Z,0
2022-10-26T16:20:40.187Z,0
2022-10-26T16:22:19.969Z,0
2022-10-26T16:23:59.745Z,0
2022-10-26T16:25:39.519Z,0
2022-10-26T16:27:19.275Z,0
2022-10-26T16:28:59.036Z,0
2022-10-26T16:30:38.795Z,0
2022-10-26T16:32:18.607Z,0
2022-10-26T16:33:58.347Z,0
2022-10-26T16:35:38.126Z,0
2022-10-26T16:37:17.871Z,0
2022-10-26T16:38:57.631Z,0
2022-10-26T16:40:37.407Z,0
2022-10-26T16:42:17.183Z,0
2022-10-26T16:43:56.942Z,0
2022-10-26T16:45:36.709Z,0
2022-10-26T16:47:16.485Z,0
2022-10-26T16:48:56.272Z,0
2022-10-26T16:50:36.027Z,0
2022-10-26T16:52:15.780Z,0
2022-10-26T16:53:55.550Z,0
2022-10-26T16:55:35.324Z,0
2022-10-26T16:57:15.117Z,0
2022-10-26T16:58:54.871Z,0
2022-10-26T17:00:34.652Z,0
2022-10-26T17:02:14.395Z,0
2022-10-26T17:03:54.159Z,0
2022-10-26T17:05:33.913Z,0
2022-10-26T17:07:13.685Z,0
2022-10-26T17:08:53.462Z,0
2022-10-26T17:10:33.219Z,0
2022-10-26T17:12:13.008Z,0
2022-10-26T17:13:52.796Z,0
2022-10-26T17:15:32.548Z,0
2022-10-26T17:17:12.323Z,0
2022-10-26T17:18:52.140Z,0
2022-10-26T17:20:31.822Z,0
2022-10-26T17:22:11.769Z,0
2022-10-26T17:23:51.478Z,0
2022-10-26T17:25:31.276Z,0
2022-10-26T17:27:10.987Z,0
2022-10-26T17:28:50.662Z,0
2022-10-26T17:30:30.431Z,0
2022-10-26T17:32:10.329Z,0
2022-10-26T17:33:50.104Z,0
2022-10-26T17:35:29.885Z,0
2022-10-26T17:37:09.501Z,0
2022-10-26T17:38:49.293Z,0
2022-10-26T17:40:29.171Z,0
2022-10-26T17:42:08.940Z,0
2022-10-26T17:43:48.690Z,0
2022-10-26T17:45:28.485Z,0
2022-10-26T17:47:08.259Z,0
2022-10-26T17:48:48.017Z,0
2022-10-26T17:50:27.796Z,0
2022-10-26T17:52:07.484Z,0
2022-10-26T17:53:47.183Z,0
2022-10-26T17:55:27.042Z,0
2022-10-26T17:57:06.723Z,0
2022-10-26T17:58:46.622Z,0
2022-10-26T18:00:26.334Z,0
2022-10-26T18:02:06.154Z,0
2022-10-26T18:03:45.870Z,0
2022-10-26T18:05:25.544Z,0
2022-10-26T18:07:05.462Z,0
2022-10-26T18:08:45.081Z,0
2022-10-26T18:10:25.006Z,0
2022-10-26T18:12:04.761Z,0
2022-10-26T18:13:44.400Z,0
2022-10-26T18:15:24.249Z,0
2022-10-26T18:17:04.064Z,0
2022-10-26T18:18:43.792Z,0
2022-10-26T18:20:23.617Z,0
2022-10-26T18:22:03.222Z,0
2022-10-26T18:23:42.991Z,0
2022-10-26T18:25:22.751Z,0
2022-10-26T18:27:02.527Z,0
2022-10-26T18:28:42.335Z,0
2022-10-26T18:30:22.161Z,0
2022-10-26T18:32:01.899Z,0
2022-10-26T18:33:41.736Z,0
2022-10-26T18:35:21.491Z,0
2022-10-26T18:37:01.128Z,0
2022-10-26T18:38:41.020Z,0
2022-10-26T18:40:20.742Z,0
2022-10-26T18:42:00.542Z,0
2022-10-26T18:43:40.327Z,0
2022-10-26T18:45:20.065Z,0
2022-10-26T18:46:59.814Z,0
2022-10-26T18:48:39.519Z,0
2022-10-26T18:50:19.343Z,0
2022-10-26T18:51:59.046Z,0
2022-10-26T18:53:38.939Z,0
2022-10-26T18:55:18.654Z,0
2022-10-26T18:56:58.375Z,0
2022-10-26T18:58:38.235Z,0
2022-10-26T19:00:18.029Z,0
2022-10-26T19:01:57.753Z,0
2022-10-26T19:03:37.538Z,0
2022-10-26T19:05:17.307Z,0
2022-10-26T19:06:56.958Z,0
2022-10-26T19:08:36.847Z,0
2022-10-26T19:10:16.649Z,0
2022-10-26T19:11:56.389Z,0
2022-10-26T19:13:36.152Z,0
2022-10-26T19:15:15.896Z,0
2022-10-26T19:16:55.692Z,0
2022-10-26T19:18:35.312Z,0
2022-10-26T19:20:15.100Z,0
2022-10-26T19:21:54.862Z,0
2022-10-26T19:23:34.628Z,0
2022-10-26T19:25:14.386Z,0
2022-10-26T19:26:54.150Z,0
2022-10-26T19:28:33.937Z,0
2022-10-26T19:30:13.724Z,0
2022-10-26T19:31:53.474Z,0
2022-10-26T19:33:33.224Z,0
2022-10-26T19:35:13.001Z,0
2022-10-26T19:36:52.759Z,0
2022-10-26T19:38:32.529Z,0
2022-10-26T19:40:12.289Z,0
2022-10-26T19:41:52.063Z,0
2022-10-26T19:43:31.820Z,0
2022-10-26T19:45:11.600Z,0
2022-10-26T19:46:51.371Z,0
2022-10-26T19:48:31.130Z,0
2022-10-26T19:50:10.898Z,0
2022-10-26T19:51:50.668Z,0
2022-10-26T19:53:30.434Z,0
2022-10-26T19:55:10.196Z,0
2022-10-26T19:56:49.972Z,0
2022-10-26T19:58:29.750Z,0
2022-10-26T20:00:09.511Z,0
2022-10-26T20:01:49.277Z,0
2022-10-26T20:03:29.050Z,0
2022-10-26T20:05:08.792Z,0
2022-10-26T20:06:48.577Z,0
2022-10-26T20:08:28.340Z,0
2022-10-26T20:10:08.106Z,0
2022-10-26T20:11:47.892Z,0
2022-10-26T20:13:27.641Z,0
2022-10-26T20:15:07.415Z,0
2022-10-26T20:16:47.218Z,0
2022-10-26T20:18:26.964Z,0
2022-10-26T20:20:06.720Z,0
2022-10-26T20:21:46.493Z,0
2022-10-26T20:23:26.245Z,0
2022-10-26T20:25:06.035Z,0
2022-10-26T20:26:45.782Z,0
2022-10-26T20:28:25.554Z,0
2022-10-26T20:30:05.311Z,0
2022-10-26T20:31:45.082Z,0
2022-10-26T20:33:24.853Z,0
2022-10-26T20:35:04.620Z,0
2022-10-26T20:36:44.396Z,0
2022-10-26T20:38:24.166Z,0
2022-10-26T20:40:03.924Z,0
2022-10-26T20:43:23.449Z,0
2022-10-26T20:45:03.219Z,0
2022-10-26T20:46:42.988Z,0
2022-10-26T20:48:22.760Z,0
2022-10-26T20:50:02.624Z,0
2022-10-26T20:51:42.304Z,0
2022-10-26T20:53:22.069Z,0
2022-10-26T20:55:01.832Z,0
2022-10-26T20:56:41.608Z,0
2022-10-26T20:58:21.369Z,0
2022-10-26T21:00:01.219Z,0
2022-10-26T21:01:40.909Z,0
2022-10-26T21:03:20.678Z,0
2022-10-26T21:05:00.441Z,0
2022-10-26T21:06:40.204Z,0
2022-10-26T21:08:19.968Z,0
2022-10-26T21:09:59.734Z,0
2022-10-26T21:11:39.495Z,0
2022-10-26T21:13:19.275Z,0
2022-10-26T21:14:59.040Z,0
2022-10-26T21:16:38.797Z,0
2022-10-26T21:18:18.571Z,0
2022-10-26T21:19:58.347Z,0
2022-10-26T21:21:38.105Z,0
2022-10-26T21:23:17.871Z,0
2022-10-26T21:24:57.648Z,0
2022-10-26T21:26:37.404Z,0
2022-10-26T21:28:17.175Z,0
2022-10-26T21:29:56.936Z,0
2022-10-26T21:31:36.711Z,0
2022-10-26T21:33:16.487Z,0
2022-10-26T21:34:56.243Z,0
2022-10-26T21:36:36.021Z,0
2022-10-26T21:38:15.788Z,0
2022-10-26T21:39:55.556Z,0
2022-10-26T21:41:35.322Z,0
2022-10-26T21:43:15.081Z,0
2022-10-26T21:44:54.854Z,0
2022-10-26T21:46:34.615Z,0
2022-10-26T21:48:14.388Z,0
2022-10-26T21:49:54.152Z,0
2022-10-26T21:51:33.922Z,0
2022-10-26T21:53:13.686Z,0
2022-10-26T21:54:53.454Z,0
2022-10-26T21:56:33.219Z,0
2022-10-26T21:58:12.993Z,0
2022-10-26T21:59:52.771Z,0
2022-10-26T22:01:32.544Z,0
2022-10-26T22:03:12.296Z,0
2022-10-26T22:04:52.070Z,0
2022-10-26T22:06:31.823Z,0
2022-10-26T22:08:11.601Z,0
2022-10-26T22:09:51.373Z,0
2022-10-26T22:11:31.144Z,0
2022-10-26T22:13:10.912Z,0
2022-10-26T22:14:50.665Z,0
2022-10-26T22:16:30.437Z,0
2022-10-26T22:18:10.201Z,0
2022-10-26T22:19:50.063Z,0
2022-10-26T22:21:29.736Z,0
2022-10-26T22:23:09.498Z,0
2022-10-26T22:24:49.301Z,0
2022-10-26T22:26:29.042Z,0
2022-10-26T22:29:48.572Z,0
2022-10-26T22:31:28.332Z,0
2022-10-26T22:33:08.102Z,0
2022-10-26T22:34:47.886Z,0
2022-10-26T22:36:27.637Z,0
2022-10-26T22:38:07.405Z,0
2022-10-26T22:39:47.173Z,0
2022-10-26T22:41:26.950Z,0
2022-10-26T22:43:06.708Z,0
2022-10-26T22:44:46.486Z,0
2022-10-26T22:46:26.242Z,0
2022-10-26T22:48:06.017Z,0
2022-10-26T22:49:45.788Z,0
2022-10-26T22:51:25.555Z,0
2022-10-26T22:53:05.308Z,0
2022-10-26T22:54:45.081Z,0
2022-10-26T22:56:24.856Z,0
2022-10-26T22:58:04.630Z,0
2022-10-26T22:59:44.387Z,0
2022-10-26T23:01:24.157Z,0
2022-10-26T23:03:03.915Z,0
2022-10-26T23:04:43.696Z,0
2022-10-26T23:06:23.462Z,0
2022-10-26T23:08:03.216Z,0
2022-10-26T23:09:42.990Z,0
2022-10-26T23:11:22.764Z,0
2022-10-26T23:13:02.525Z,0
2022-10-26T23:14:42.287Z,0
2022-10-26T23:16:22.058Z,0
2022-10-26T23:18:01.840Z,0
2022-10-26T23:19:41.595Z,0
2022-10-26T23:21:21.376Z,0
2022-10-26T23:23:01.131Z,0
2022-10-26T23:24:40.898Z,0
2022-10-26T23:26:20.668Z,0
2022-10-26T23:28:00.449Z,0
2022-10-26T23:29:40.201Z,0
2022-10-26T23:31:19.971Z,0
2022-10-26T23:32:59.742Z,0
2022-10-26T23:34:39.494Z,0
2022-10-26T23:36:19.270Z,0
2022-10-26T23:37:59.037Z,0
2022-10-26T23:39:38.814Z,0
2022-10-26T23:41:18.575Z,0
2022-10-26T23:42:58.351Z,0
2022-10-26T23:44:38.103Z,0
2022-10-26T23:46:17.894Z,0
2022-10-26T23:47:57.643Z,0
2022-10-26T23:49:37.407Z,0
2022-10-26T23:51:17.170Z,0
2022-10-26T23:52:56.936Z,0
2022-10-26T23:54:36.715Z,0
2022-10-26T23:56:16.492Z,0
2022-10-26T23:57:56.247Z,0